sensor_id;sensor_type;location;lat;lon;timestamp;temperature;humidity
16700;DHT22;8466;52.286;21.124;2023-02-08T00:01:40;0.70;99.90
16700;DHT22;8466;52.286;21.124;2023-02-08T00:04:10;0.80;99.90
16700;DHT22;8466;52.286;21.124;2023-02-08T00:06:39;0.80;99.90
16700;DHT22;8466;52.286;21.124;2023-02-08T00:09:08;0.80;99.90
16700;DHT22;8466;52.286;21.124;2023-02-08T00:11:37;0.80;99.90
16700;DHT22;8466;52.286;21.124;2023-02-08T00:14:06;0.80;99.90
16700;DHT22;8466;52.286;21.124;2023-02-08T00:16:35;0.80;99.90
16700;DHT22;8466;52.286;21.124;2023-02-08T00:19:04;0.70;99.90
16700;DHT22;8466;52.286;21.124;2023-02-08T00:21:34;0.70;99.90
16700;DHT22;8466;52.286;21.124;2023-02-08T00:24:03;0.70;99.90
16700;DHT22;8466;52.286;21.124;2023-02-08T00:26:31;0.70;99.90
16700;DHT22;8466;52.286;21.124;2023-02-08T00:29:00;0.70;99.90
16700;DHT22;8466;52.286;21.124;2023-02-08T00:31:29;0.70;99.90
16700;DHT22;8466;52.286;21.124;2023-02-08T00:33:57;0.70;99.90
16700;DHT22;8466;52.286;21.124;2023-02-08T00:36:26;0.70;99.90
16700;DHT22;8466;52.286;21.124;2023-02-08T00:38:56;0.80;99.90
16700;DHT22;8466;52.286;21.124;2023-02-08T00:41:24;0.70;99.90
16700;DHT22;8466;52.286;21.124;2023-02-08T00:43:53;0.60;99.90
16700;DHT22;8466;52.286;21.124;2023-02-08T00:46:22;0.60;99.90
16700;DHT22;8466;52.286;21.124;2023-02-08T00:48:50;0.50;99.90
16700;DHT22;8466;52.286;21.124;2023-02-08T00:51:19;0.60;99.90
16700;DHT22;8466;52.286;21.124;2023-02-08T00:53:48;0.60;99.90
16700;DHT22;8466;52.286;21.124;2023-02-08T00:56:18;0.60;99.90
16700;DHT22;8466;52.286;21.124;2023-02-08T00:58:46;0.60;99.90
16700;DHT22;8466;52.286;21.124;2023-02-08T01:01:15;0.60;99.90
16700;DHT22;8466;52.286;21.124;2023-02-08T01:03:43;0.60;99.90
16700;DHT22;8466;52.286;21.124;2023-02-08T01:06:14;0.60;99.90
16700;DHT22;8466;52.286;21.124;2023-02-08T01:08:43;0.60;99.90
16700;DHT22;8466;52.286;21.124;2023-02-08T01:11:13;0.60;99.90
16700;DHT22;8466;52.286;21.124;2023-02-08T01:13:45;0.60;99.90
16700;DHT22;8466;52.286;21.124;2023-02-08T01:16:14;0.60;99.90
16700;DHT22;8466;52.286;21.124;2023-02-08T01:18:47;0.60;99.90
16700;DHT22;8466;52.286;21.124;2023-02-08T01:21:18;0.60;99.90
16700;DHT22;8466;52.286;21.124;2023-02-08T01:23:47;0.60;99.90
16700;DHT22;8466;52.286;21.124;2023-02-08T01:26:16;0.60;99.90
16700;DHT22;8466;52.286;21.124;2023-02-08T01:28:48;0.60;99.90
16700;DHT22;8466;52.286;21.124;2023-02-08T01:31:18;0.60;99.90
16700;DHT22;8466;52.286;21.124;2023-02-08T01:33:47;0.60;99.90
16700;DHT22;8466;52.286;21.124;2023-02-08T01:36:15;0.60;99.90
16700;DHT22;8466;52.286;21.124;2023-02-08T01:38:46;0.60;99.90
16700;DHT22;8466;52.286;21.124;2023-02-08T01:41:16;0.50;99.90
16700;DHT22;8466;52.286;21.124;2023-02-08T01:46:45;0.50;99.90
16700;DHT22;8466;52.286;21.124;2023-02-08T01:49:16;0.50;99.90
16700;DHT22;8466;52.286;21.124;2023-02-08T01:51:48;0.50;99.90
16700;DHT22;8466;52.286;21.124;2023-02-08T01:54:18;0.50;99.90
16700;DHT22;8466;52.286;21.124;2023-02-08T01:56:50;0.50;99.90
16700;DHT22;8466;52.286;21.124;2023-02-08T01:59:22;0.50;99.90
16700;DHT22;8466;52.286;21.124;2023-02-08T02:01:54;0.50;99.90
16700;DHT22;8466;52.286;21.124;2023-02-08T02:04:24;0.40;99.90
16700;DHT22;8466;52.286;21.124;2023-02-08T02:06:56;0.40;99.90
16700;DHT22;8466;52.286;21.124;2023-02-08T02:09:29;0.40;99.90
16700;DHT22;8466;52.286;21.124;2023-02-08T02:11:59;0.40;99.90
16700;DHT22;8466;52.286;21.124;2023-02-08T02:14:30;0.40;99.90
16700;DHT22;8466;52.286;21.124;2023-02-08T02:16:59;0.40;99.90
16700;DHT22;8466;52.286;21.124;2023-02-08T02:19:44;0.40;99.90
16700;DHT22;8466;52.286;21.124;2023-02-08T02:22:41;0.40;99.90
16700;DHT22;8466;52.286;21.124;2023-02-08T02:25:57;0.40;99.90
16700;DHT22;8466;52.286;21.124;2023-02-08T02:31:57;0.50;99.90
16700;DHT22;8466;52.286;21.124;2023-02-08T02:34:32;0.50;99.90
16700;DHT22;8466;52.286;21.124;2023-02-08T02:37:11;0.50;99.90
16700;DHT22;8466;52.286;21.124;2023-02-08T02:39:47;0.50;99.90
16700;DHT22;8466;52.286;21.124;2023-02-08T02:42:27;0.50;99.90
16700;DHT22;8466;52.286;21.124;2023-02-08T02:45:18;0.40;99.90
16700;DHT22;8466;52.286;21.124;2023-02-08T02:47:55;0.40;99.90
16700;DHT22;8466;52.286;21.124;2023-02-08T02:50:31;0.40;99.90
16700;DHT22;8466;52.286;21.124;2023-02-08T02:53:05;0.40;99.90
16700;DHT22;8466;52.286;21.124;2023-02-08T02:55:39;0.40;99.90
16700;DHT22;8466;52.286;21.124;2023-02-08T02:58:11;0.50;99.90
16700;DHT22;8466;52.286;21.124;2023-02-08T03:00:41;0.50;99.90
16700;DHT22;8466;52.286;21.124;2023-02-08T03:03:18;0.50;99.90
16700;DHT22;8466;52.286;21.124;2023-02-08T03:05:49;0.50;99.90
16700;DHT22;8466;52.286;21.124;2023-02-08T03:08:46;0.40;99.90
16700;DHT22;8466;52.286;21.124;2023-02-08T03:11:19;0.40;99.90
16700;DHT22;8466;52.286;21.124;2023-02-08T03:14:21;0.40;99.90
16700;DHT22;8466;52.286;21.124;2023-02-08T03:17:15;0.50;99.90
16700;DHT22;8466;52.286;21.124;2023-02-08T03:19:54;0.50;99.90
16700;DHT22;8466;52.286;21.124;2023-02-08T03:22:35;0.50;99.90
16700;DHT22;8466;52.286;21.124;2023-02-08T03:25:10;0.50;99.90
16700;DHT22;8466;52.286;21.124;2023-02-08T03:27:46;0.40;99.90
16700;DHT22;8466;52.286;21.124;2023-02-08T03:30:20;0.40;99.90
16700;DHT22;8466;52.286;21.124;2023-02-08T03:32:53;0.40;99.90
16700;DHT22;8466;52.286;21.124;2023-02-08T03:35:28;0.40;99.90
16700;DHT22;8466;52.286;21.124;2023-02-08T03:38:00;0.50;99.90
16700;DHT22;8466;52.286;21.124;2023-02-08T03:40:32;0.30;99.90
16700;DHT22;8466;52.286;21.124;2023-02-08T03:43:06;0.40;99.90
16700;DHT22;8466;52.286;21.124;2023-02-08T03:45:39;0.40;99.90
16700;DHT22;8466;52.286;21.124;2023-02-08T03:48:10;0.40;99.90
16700;DHT22;8466;52.286;21.124;2023-02-08T03:50:45;0.50;99.90
16700;DHT22;8466;52.286;21.124;2023-02-08T03:53:18;0.40;99.90
16700;DHT22;8466;52.286;21.124;2023-02-08T03:55:50;0.40;99.90
16700;DHT22;8466;52.286;21.124;2023-02-08T03:58:22;0.30;99.90
16700;DHT22;8466;52.286;21.124;2023-02-08T04:00:55;0.40;99.90
16700;DHT22;8466;52.286;21.124;2023-02-08T04:03:27;0.30;99.90
16700;DHT22;8466;52.286;21.124;2023-02-08T04:05:59;0.30;99.90
16700;DHT22;8466;52.286;21.124;2023-02-08T04:08:27;0.30;99.90
16700;DHT22;8466;52.286;21.124;2023-02-08T04:10:57;0.30;99.90
16700;DHT22;8466;52.286;21.124;2023-02-08T04:13:25;0.30;99.90
16700;DHT22;8466;52.286;21.124;2023-02-08T04:15:54;0.30;99.90
16700;DHT22;8466;52.286;21.124;2023-02-08T04:18:23;0.30;99.90
16700;DHT22;8466;52.286;21.124;2023-02-08T04:20:52;0.30;99.90
16700;DHT22;8466;52.286;21.124;2023-02-08T04:23:22;0.30;99.90
16700;DHT22;8466;52.286;21.124;2023-02-08T04:25:50;0.20;99.90
16700;DHT22;8466;52.286;21.124;2023-02-08T04:28:19;0.20;99.90
16700;DHT22;8466;52.286;21.124;2023-02-08T04:30:47;0.20;99.90
16700;DHT22;8466;52.286;21.124;2023-02-08T04:33:16;0.30;99.90
16700;DHT22;8466;52.286;21.124;2023-02-08T04:35:45;0.30;99.90
16700;DHT22;8466;52.286;21.124;2023-02-08T04:38:13;0.40;99.90
16700;DHT22;8466;52.286;21.124;2023-02-08T04:40:43;0.40;99.90
16700;DHT22;8466;52.286;21.124;2023-02-08T04:43:12;0.30;99.90
16700;DHT22;8466;52.286;21.124;2023-02-08T04:45:40;0.30;99.90
16700;DHT22;8466;52.286;21.124;2023-02-08T04:48:09;0.30;99.90
16700;DHT22;8466;52.286;21.124;2023-02-08T04:50:38;0.20;99.90
16700;DHT22;8466;52.286;21.124;2023-02-08T04:53:06;0.30;99.90
16700;DHT22;8466;52.286;21.124;2023-02-08T04:55:35;0.30;99.90
16700;DHT22;8466;52.286;21.124;2023-02-08T04:58:05;0.30;99.90
16700;DHT22;8466;52.286;21.124;2023-02-08T05:00:34;0.30;99.90
16700;DHT22;8466;52.286;21.124;2023-02-08T05:03:02;0.30;99.90
16700;DHT22;8466;52.286;21.124;2023-02-08T05:05:32;0.30;99.90
16700;DHT22;8466;52.286;21.124;2023-02-08T05:08:00;0.30;99.90
16700;DHT22;8466;52.286;21.124;2023-02-08T05:10:29;0.30;99.90
16700;DHT22;8466;52.286;21.124;2023-02-08T05:12:58;0.30;99.90
16700;DHT22;8466;52.286;21.124;2023-02-08T05:15:28;0.30;99.90
16700;DHT22;8466;52.286;21.124;2023-02-08T05:17:57;0.30;99.90
16700;DHT22;8466;52.286;21.124;2023-02-08T05:20:25;0.30;99.90
16700;DHT22;8466;52.286;21.124;2023-02-08T05:22:54;0.30;99.90
16700;DHT22;8466;52.286;21.124;2023-02-08T05:25:23;0.30;99.90
16700;DHT22;8466;52.286;21.124;2023-02-08T05:27:51;0.30;99.90
16700;DHT22;8466;52.286;21.124;2023-02-08T05:30:20;0.30;99.90
16700;DHT22;8466;52.286;21.124;2023-02-08T05:32:50;0.30;99.90
16700;DHT22;8466;52.286;21.124;2023-02-08T05:35:19;0.30;99.90
16700;DHT22;8466;52.286;21.124;2023-02-08T05:37:47;0.40;99.90
16700;DHT22;8466;52.286;21.124;2023-02-08T05:40:16;0.40;99.90
16700;DHT22;8466;52.286;21.124;2023-02-08T05:42:45;0.40;99.90
16700;DHT22;8466;52.286;21.124;2023-02-08T05:45:14;0.40;99.90
16700;DHT22;8466;52.286;21.124;2023-02-08T05:47:43;0.50;99.90
16700;DHT22;8466;52.286;21.124;2023-02-08T05:50:15;0.50;99.90
16700;DHT22;8466;52.286;21.124;2023-02-08T05:52:43;0.60;99.90
16700;DHT22;8466;52.286;21.124;2023-02-08T05:55:12;0.60;99.90
16700;DHT22;8466;52.286;21.124;2023-02-08T05:57:40;0.50;99.90
16700;DHT22;8466;52.286;21.124;2023-02-08T06:00:10;0.50;99.90
16700;DHT22;8466;52.286;21.124;2023-02-08T06:02:39;0.50;99.90
16700;DHT22;8466;52.286;21.124;2023-02-08T06:05:08;0.40;99.90
16700;DHT22;8466;52.286;21.124;2023-02-08T06:07:38;0.40;99.90
16700;DHT22;8466;52.286;21.124;2023-02-08T06:10:07;0.50;99.90
16700;DHT22;8466;52.286;21.124;2023-02-08T06:12:37;0.50;99.90
16700;DHT22;8466;52.286;21.124;2023-02-08T06:15:06;0.50;99.90
16700;DHT22;8466;52.286;21.124;2023-02-08T06:17:35;0.50;99.90
16700;DHT22;8466;52.286;21.124;2023-02-08T06:20:04;0.50;99.90
16700;DHT22;8466;52.286;21.124;2023-02-08T06:22:33;0.50;99.90
16700;DHT22;8466;52.286;21.124;2023-02-08T06:25:04;0.50;99.90
16700;DHT22;8466;52.286;21.124;2023-02-08T06:27:33;0.50;99.90
16700;DHT22;8466;52.286;21.124;2023-02-08T06:30:02;0.50;99.90
16700;DHT22;8466;52.286;21.124;2023-02-08T06:32:31;0.50;99.90
16700;DHT22;8466;52.286;21.124;2023-02-08T06:35:00;0.50;99.90
16700;DHT22;8466;52.286;21.124;2023-02-08T06:37:28;0.60;99.90
16700;DHT22;8466;52.286;21.124;2023-02-08T06:39:57;0.60;99.90
16700;DHT22;8466;52.286;21.124;2023-02-08T06:42:29;0.60;99.90
16700;DHT22;8466;52.286;21.124;2023-02-08T06:44:58;0.60;99.90
16700;DHT22;8466;52.286;21.124;2023-02-08T06:47:26;0.60;99.90
16700;DHT22;8466;52.286;21.124;2023-02-08T06:49:55;0.60;99.90
16700;DHT22;8466;52.286;21.124;2023-02-08T06:52:23;0.60;99.90
16700;DHT22;8466;52.286;21.124;2023-02-08T06:54:52;0.60;99.90
16700;DHT22;8466;52.286;21.124;2023-02-08T06:57:21;0.70;99.90
16700;DHT22;8466;52.286;21.124;2023-02-08T06:59:51;0.70;99.90
16700;DHT22;8466;52.286;21.124;2023-02-08T07:02:20;0.70;99.90
16700;DHT22;8466;52.286;21.124;2023-02-08T07:04:49;0.70;99.90
16700;DHT22;8466;52.286;21.124;2023-02-08T07:07:18;0.80;99.90
16700;DHT22;8466;52.286;21.124;2023-02-08T07:09:46;0.80;99.90
16700;DHT22;8466;52.286;21.124;2023-02-08T07:12:15;0.80;99.90
16700;DHT22;8466;52.286;21.124;2023-02-08T07:14:43;0.90;99.90
16700;DHT22;8466;52.286;21.124;2023-02-08T07:17:13;0.90;99.90
16700;DHT22;8466;52.286;21.124;2023-02-08T07:19:42;0.90;99.90
16700;DHT22;8466;52.286;21.124;2023-02-08T07:22:10;1.00;99.90
16700;DHT22;8466;52.286;21.124;2023-02-08T07:24:40;1.00;99.90
16700;DHT22;8466;52.286;21.124;2023-02-08T07:27:10;1.10;99.90
16700;DHT22;8466;52.286;21.124;2023-02-08T07:29:40;1.10;99.90
16700;DHT22;8466;52.286;21.124;2023-02-08T07:32:09;1.10;99.90
16700;DHT22;8466;52.286;21.124;2023-02-08T07:34:41;1.10;99.90
16700;DHT22;8466;52.286;21.124;2023-02-08T07:37:12;1.10;99.90
16700;DHT22;8466;52.286;21.124;2023-02-08T07:39:43;1.30;99.90
16700;DHT22;8466;52.286;21.124;2023-02-08T07:42:12;1.20;99.90
16700;DHT22;8466;52.286;21.124;2023-02-08T07:44:41;1.20;99.90
16700;DHT22;8466;52.286;21.124;2023-02-08T07:47:09;1.30;99.90
16700;DHT22;8466;52.286;21.124;2023-02-08T07:49:38;1.30;99.90
16700;DHT22;8466;52.286;21.124;2023-02-08T07:52:08;1.30;99.90
16700;DHT22;8466;52.286;21.124;2023-02-08T07:54:36;1.40;99.90
16700;DHT22;8466;52.286;21.124;2023-02-08T07:57:05;1.50;99.90
16700;DHT22;8466;52.286;21.124;2023-02-08T07:59:34;1.50;99.90
16700;DHT22;8466;52.286;21.124;2023-02-08T08:02:02;1.50;99.90
16700;DHT22;8466;52.286;21.124;2023-02-08T08:04:31;1.70;99.90
16700;DHT22;8466;52.286;21.124;2023-02-08T08:07:00;1.70;99.90
16700;DHT22;8466;52.286;21.124;2023-02-08T08:09:30;1.70;99.90
16700;DHT22;8466;52.286;21.124;2023-02-08T08:11:59;1.80;99.90
16700;DHT22;8466;52.286;21.124;2023-02-08T08:14:28;1.90;99.90
16700;DHT22;8466;52.286;21.124;2023-02-08T08:16:57;1.90;99.90
16700;DHT22;8466;52.286;21.124;2023-02-08T08:19:26;1.90;99.90
16700;DHT22;8466;52.286;21.124;2023-02-08T08:21:54;2.00;99.90
16700;DHT22;8466;52.286;21.124;2023-02-08T08:24:23;2.00;99.90
16700;DHT22;8466;52.286;21.124;2023-02-08T08:26:53;2.10;99.90
16700;DHT22;8466;52.286;21.124;2023-02-08T08:29:22;2.20;99.90
16700;DHT22;8466;52.286;21.124;2023-02-08T08:31:51;2.30;99.90
16700;DHT22;8466;52.286;21.124;2023-02-08T08:34:19;2.30;99.90
16700;DHT22;8466;52.286;21.124;2023-02-08T08:36:50;2.30;99.90
16700;DHT22;8466;52.286;21.124;2023-02-08T08:39:19;2.40;99.90
16700;DHT22;8466;52.286;21.124;2023-02-08T08:41:47;2.40;99.90
16700;DHT22;8466;52.286;21.124;2023-02-08T08:44:18;2.40;99.90
16700;DHT22;8466;52.286;21.124;2023-02-08T08:46:47;2.40;99.90
16700;DHT22;8466;52.286;21.124;2023-02-08T08:49:15;2.50;99.90
16700;DHT22;8466;52.286;21.124;2023-02-08T08:51:45;2.50;99.90
16700;DHT22;8466;52.286;21.124;2023-02-08T08:54:14;2.50;99.90
16700;DHT22;8466;52.286;21.124;2023-02-08T08:56:43;2.50;99.90
16700;DHT22;8466;52.286;21.124;2023-02-08T08:59:12;2.50;99.90
16700;DHT22;8466;52.286;21.124;2023-02-08T09:01:42;2.50;99.90
16700;DHT22;8466;52.286;21.124;2023-02-08T09:04:11;2.60;99.90
16700;DHT22;8466;52.286;21.124;2023-02-08T09:06:39;2.60;99.90
16700;DHT22;8466;52.286;21.124;2023-02-08T09:09:08;2.70;99.90
16700;DHT22;8466;52.286;21.124;2023-02-08T09:11:37;2.80;99.90
16700;DHT22;8466;52.286;21.124;2023-02-08T09:14:06;2.80;99.90
16700;DHT22;8466;52.286;21.124;2023-02-08T09:16:35;2.80;99.90
16700;DHT22;8466;52.286;21.124;2023-02-08T09:19:06;2.80;99.90
16700;DHT22;8466;52.286;21.124;2023-02-08T09:21:35;2.90;99.90
16700;DHT22;8466;52.286;21.124;2023-02-08T09:24:04;2.90;99.90
16700;DHT22;8466;52.286;21.124;2023-02-08T09:26:33;3.10;99.90
16700;DHT22;8466;52.286;21.124;2023-02-08T09:29:03;3.10;99.90
16700;DHT22;8466;52.286;21.124;2023-02-08T09:31:32;3.10;99.90
16700;DHT22;8466;52.286;21.124;2023-02-08T09:34:06;3.10;99.90
16700;DHT22;8466;52.286;21.124;2023-02-08T09:36:37;3.10;99.90
16700;DHT22;8466;52.286;21.124;2023-02-08T09:39:09;3.10;99.90
16700;DHT22;8466;52.286;21.124;2023-02-08T09:41:53;3.10;99.90
16700;DHT22;8466;52.286;21.124;2023-02-08T09:44:30;3.10;99.90
16700;DHT22;8466;52.286;21.124;2023-02-08T09:47:07;3.20;99.90
16700;DHT22;8466;52.286;21.124;2023-02-08T09:49:43;3.40;99.90
16700;DHT22;8466;52.286;21.124;2023-02-08T09:52:17;3.40;99.90
16700;DHT22;8466;52.286;21.124;2023-02-08T09:54:51;3.50;99.90
16700;DHT22;8466;52.286;21.124;2023-02-08T09:57:25;3.50;99.90
16700;DHT22;8466;52.286;21.124;2023-02-08T09:59:59;3.60;99.90
16700;DHT22;8466;52.286;21.124;2023-02-08T10:02:30;3.60;99.90
16700;DHT22;8466;52.286;21.124;2023-02-08T10:05:03;3.70;99.90
16700;DHT22;8466;52.286;21.124;2023-02-08T10:07:33;3.60;99.90
16700;DHT22;8466;52.286;21.124;2023-02-08T10:10:05;3.60;99.90
16700;DHT22;8466;52.286;21.124;2023-02-08T10:12:43;3.60;99.90
16700;DHT22;8466;52.286;21.124;2023-02-08T10:15:26;3.60;99.90
16700;DHT22;8466;52.286;21.124;2023-02-08T10:18:19;3.60;99.90
16700;DHT22;8466;52.286;21.124;2023-02-08T10:21:07;3.60;99.90
16700;DHT22;8466;52.286;21.124;2023-02-08T10:26:38;3.70;99.90
16700;DHT22;8466;52.286;21.124;2023-02-08T10:29:25;3.70;99.90
16700;DHT22;8466;52.286;21.124;2023-02-08T10:32:13;3.70;99.90
16700;DHT22;8466;52.286;21.124;2023-02-08T10:34:45;3.80;99.90
16700;DHT22;8466;52.286;21.124;2023-02-08T10:37:17;3.80;99.90
16700;DHT22;8466;52.286;21.124;2023-02-08T10:39:48;3.80;99.90
16700;DHT22;8466;52.286;21.124;2023-02-08T10:42:18;3.80;99.90
16700;DHT22;8466;52.286;21.124;2023-02-08T10:44:59;3.90;99.90
16700;DHT22;8466;52.286;21.124;2023-02-08T10:47:43;3.80;99.90
16700;DHT22;8466;52.286;21.124;2023-02-08T10:50:19;3.80;99.90
16700;DHT22;8466;52.286;21.124;2023-02-08T10:52:52;3.80;99.90
16700;DHT22;8466;52.286;21.124;2023-02-08T10:55:20;3.70;99.90
16700;DHT22;8466;52.286;21.124;2023-02-08T10:57:51;3.70;99.90
16700;DHT22;8466;52.286;21.124;2023-02-08T11:00:25;3.50;99.90
16700;DHT22;8466;52.286;21.124;2023-02-08T11:02:55;3.50;99.90
16700;DHT22;8466;52.286;21.124;2023-02-08T11:05:34;3.50;99.90
16700;DHT22;8466;52.286;21.124;2023-02-08T11:08:10;3.40;99.90
16700;DHT22;8466;52.286;21.124;2023-02-08T11:10:43;3.30;99.90
16700;DHT22;8466;52.286;21.124;2023-02-08T11:13:18;3.20;99.90
16700;DHT22;8466;52.286;21.124;2023-02-08T11:15:52;3.20;99.90
16700;DHT22;8466;52.286;21.124;2023-02-08T11:18:24;3.20;99.90
16700;DHT22;8466;52.286;21.124;2023-02-08T11:20:56;3.20;99.90
16700;DHT22;8466;52.286;21.124;2023-02-08T11:23:29;3.20;99.90
16700;DHT22;8466;52.286;21.124;2023-02-08T11:26:14;3.20;99.90
16700;DHT22;8466;52.286;21.124;2023-02-08T11:28:45;3.20;99.90
16700;DHT22;8466;52.286;21.124;2023-02-08T11:31:25;3.20;99.90
16700;DHT22;8466;52.286;21.124;2023-02-08T11:33:59;3.30;99.90
16700;DHT22;8466;52.286;21.124;2023-02-08T11:36:30;3.30;99.90
16700;DHT22;8466;52.286;21.124;2023-02-08T11:39:13;3.30;99.90
16700;DHT22;8466;52.286;21.124;2023-02-08T11:41:44;3.30;99.90
16700;DHT22;8466;52.286;21.124;2023-02-08T11:44:18;3.40;99.90
16700;DHT22;8466;52.286;21.124;2023-02-08T11:46:52;3.40;99.90
16700;DHT22;8466;52.286;21.124;2023-02-08T11:49:23;3.50;99.90
16700;DHT22;8466;52.286;21.124;2023-02-08T11:51:52;3.50;99.90
16700;DHT22;8466;52.286;21.124;2023-02-08T11:54:37;3.50;99.90
16700;DHT22;8466;52.286;21.124;2023-02-08T11:57:13;3.60;99.90
16700;DHT22;8466;52.286;21.124;2023-02-08T11:59:42;3.70;99.90
16700;DHT22;8466;52.286;21.124;2023-02-08T12:02:35;3.90;99.90
16700;DHT22;8466;52.286;21.124;2023-02-08T12:05:09;4.00;99.90
16700;DHT22;8466;52.286;21.124;2023-02-08T12:07:52;4.00;99.90
16700;DHT22;8466;52.286;21.124;2023-02-08T12:10:41;4.00;99.90
16700;DHT22;8466;52.286;21.124;2023-02-08T12:13:27;4.10;99.90
16700;DHT22;8466;52.286;21.124;2023-02-08T12:16:11;4.10;99.90
16700;DHT22;8466;52.286;21.124;2023-02-08T12:18:52;4.20;99.90
16700;DHT22;8466;52.286;21.124;2023-02-08T12:21:25;4.20;99.90
16700;DHT22;8466;52.286;21.124;2023-02-08T12:23:57;4.20;99.90
16700;DHT22;8466;52.286;21.124;2023-02-08T12:26:45;4.20;99.90
16700;DHT22;8466;52.286;21.124;2023-02-08T12:29:33;4.20;99.90
16700;DHT22;8466;52.286;21.124;2023-02-08T12:32:28;4.10;99.90
16700;DHT22;8466;52.286;21.124;2023-02-08T12:35:31;4.10;99.90
16700;DHT22;8466;52.286;21.124;2023-02-08T12:38:27;4.10;99.90
16700;DHT22;8466;52.286;21.124;2023-02-08T12:41:22;4.00;99.90
16700;DHT22;8466;52.286;21.124;2023-02-08T12:44:03;4.00;99.90
16700;DHT22;8466;52.286;21.124;2023-02-08T12:46:50;4.00;99.90
16700;DHT22;8466;52.286;21.124;2023-02-08T12:52:25;4.00;99.90
16700;DHT22;8466;52.286;21.124;2023-02-08T12:55:00;4.00;99.90
16700;DHT22;8466;52.286;21.124;2023-02-08T12:57:30;3.90;99.90
16700;DHT22;8466;52.286;21.124;2023-02-08T13:00:04;3.90;99.90
16700;DHT22;8466;52.286;21.124;2023-02-08T13:02:40;3.90;99.90
16700;DHT22;8466;52.286;21.124;2023-02-08T13:05:15;3.90;99.90
16700;DHT22;8466;52.286;21.124;2023-02-08T13:07:47;4.00;99.90
16700;DHT22;8466;52.286;21.124;2023-02-08T13:10:22;4.00;99.90
16700;DHT22;8466;52.286;21.124;2023-02-08T13:12:57;4.00;99.90
16700;DHT22;8466;52.286;21.124;2023-02-08T13:15:34;4.00;99.90
16700;DHT22;8466;52.286;21.124;2023-02-08T13:18:12;3.80;99.90
16700;DHT22;8466;52.286;21.124;2023-02-08T13:20:44;3.80;99.90
16700;DHT22;8466;52.286;21.124;2023-02-08T13:23:20;3.60;99.90
16700;DHT22;8466;52.286;21.124;2023-02-08T13:25:52;3.40;99.90
16700;DHT22;8466;52.286;21.124;2023-02-08T13:28:24;3.20;99.90
16700;DHT22;8466;52.286;21.124;2023-02-08T13:30:58;2.90;99.90
16700;DHT22;8466;52.286;21.124;2023-02-08T13:33:35;2.60;99.90
16700;DHT22;8466;52.286;21.124;2023-02-08T13:36:29;2.40;99.90
16700;DHT22;8466;52.286;21.124;2023-02-08T13:38:59;2.10;99.90
16700;DHT22;8466;52.286;21.124;2023-02-08T13:41:30;1.90;99.90
16700;DHT22;8466;52.286;21.124;2023-02-08T13:44:01;1.80;99.90
16700;DHT22;8466;52.286;21.124;2023-02-08T13:46:38;1.80;99.90
16700;DHT22;8466;52.286;21.124;2023-02-08T13:49:42;1.80;99.90
16700;DHT22;8466;52.286;21.124;2023-02-08T13:52:11;1.80;99.90
16700;DHT22;8466;52.286;21.124;2023-02-08T13:55:50;1.80;99.90
16700;DHT22;8466;52.286;21.124;2023-02-08T13:58:35;1.70;99.90
16700;DHT22;8466;52.286;21.124;2023-02-08T14:01:16;1.80;99.90
16700;DHT22;8466;52.286;21.124;2023-02-08T14:04:25;1.80;99.90
16700;DHT22;8466;52.286;21.124;2023-02-08T14:06:59;1.70;99.90
16700;DHT22;8466;52.286;21.124;2023-02-08T14:09:49;1.50;99.90
16700;DHT22;8466;52.286;21.124;2023-02-08T14:12:25;1.40;99.90
16700;DHT22;8466;52.286;21.124;2023-02-08T14:15:06;1.30;99.90
16700;DHT22;8466;52.286;21.124;2023-02-08T14:17:35;1.20;99.90
16700;DHT22;8466;52.286;21.124;2023-02-08T14:20:05;1.10;99.90
16700;DHT22;8466;52.286;21.124;2023-02-08T14:22:37;1.00;99.90
16700;DHT22;8466;52.286;21.124;2023-02-08T14:25:15;0.90;99.90
16700;DHT22;8466;52.286;21.124;2023-02-08T14:27:51;0.80;99.90
16700;DHT22;8466;52.286;21.124;2023-02-08T14:30:25;0.70;99.90
16700;DHT22;8466;52.286;21.124;2023-02-08T14:33:11;0.60;99.90
16700;DHT22;8466;52.286;21.124;2023-02-08T14:35:50;0.70;99.90
16700;DHT22;8466;52.286;21.124;2023-02-08T14:41:42;0.60;99.90
16700;DHT22;8466;52.286;21.124;2023-02-08T14:50:41;0.60;99.90
16700;DHT22;8466;52.286;21.124;2023-02-08T14:53:22;0.50;99.90
16700;DHT22;8466;52.286;21.124;2023-02-08T14:55:55;0.40;99.90
16700;DHT22;8466;52.286;21.124;2023-02-08T14:58:28;0.40;99.90
16700;DHT22;8466;52.286;21.124;2023-02-08T15:01:02;0.30;99.90
16700;DHT22;8466;52.286;21.124;2023-02-08T15:03:34;0.20;99.90
16700;DHT22;8466;52.286;21.124;2023-02-08T15:06:27;0.20;99.90
16700;DHT22;8466;52.286;21.124;2023-02-08T15:08:58;0.10;99.90
16700;DHT22;8466;52.286;21.124;2023-02-08T15:11:29;0.00;99.90
16700;DHT22;8466;52.286;21.124;2023-02-08T15:14:00;-0.10;99.90
16700;DHT22;8466;52.286;21.124;2023-02-08T15:16:33;-0.10;99.90
16700;DHT22;8466;52.286;21.124;2023-02-08T15:19:04;-0.30;99.90
16700;DHT22;8466;52.286;21.124;2023-02-08T15:21:36;-0.30;99.90
16700;DHT22;8466;52.286;21.124;2023-02-08T15:24:14;-0.40;99.90
16700;DHT22;8466;52.286;21.124;2023-02-08T15:26:45;-0.50;99.90
16700;DHT22;8466;52.286;21.124;2023-02-08T15:29:18;-0.60;99.90
16700;DHT22;8466;52.286;21.124;2023-02-08T15:31:52;-0.70;99.90
16700;DHT22;8466;52.286;21.124;2023-02-08T15:34:24;-0.80;99.90
16700;DHT22;8466;52.286;21.124;2023-02-08T15:36:55;-0.80;99.90
16700;DHT22;8466;52.286;21.124;2023-02-08T15:39:31;-1.00;99.90
16700;DHT22;8466;52.286;21.124;2023-02-08T15:42:01;-1.00;99.90
16700;DHT22;8466;52.286;21.124;2023-02-08T15:44:32;-1.00;99.90
16700;DHT22;8466;52.286;21.124;2023-02-08T15:47:02;-1.20;99.90
16700;DHT22;8466;52.286;21.124;2023-02-08T15:49:34;-1.30;99.90
16700;DHT22;8466;52.286;21.124;2023-02-08T15:52:06;-1.40;99.90
16700;DHT22;8466;52.286;21.124;2023-02-08T15:54:36;-1.50;99.90
16700;DHT22;8466;52.286;21.124;2023-02-08T15:57:08;-1.50;99.90
16700;DHT22;8466;52.286;21.124;2023-02-08T15:59:45;-1.60;99.90
16700;DHT22;8466;52.286;21.124;2023-02-08T16:02:22;-1.70;99.90
16700;DHT22;8466;52.286;21.124;2023-02-08T16:04:52;-1.80;99.90
16700;DHT22;8466;52.286;21.124;2023-02-08T16:07:27;-1.90;99.90
16700;DHT22;8466;52.286;21.124;2023-02-08T16:09:59;-1.90;99.90
16700;DHT22;8466;52.286;21.124;2023-02-08T16:12:28;-2.00;99.90
16700;DHT22;8466;52.286;21.124;2023-02-08T16:14:57;-2.00;99.90
16700;DHT22;8466;52.286;21.124;2023-02-08T16:17:35;-2.00;99.90
16700;DHT22;8466;52.286;21.124;2023-02-08T16:20:22;-2.10;99.90
16700;DHT22;8466;52.286;21.124;2023-02-08T16:22:59;-2.20;99.90
16700;DHT22;8466;52.286;21.124;2023-02-08T16:25:34;-2.20;99.90
16700;DHT22;8466;52.286;21.124;2023-02-08T16:28:04;-2.30;99.90
16700;DHT22;8466;52.286;21.124;2023-02-08T16:30:33;-2.30;99.90
16700;DHT22;8466;52.286;21.124;2023-02-08T16:33:07;-2.40;99.90
16700;DHT22;8466;52.286;21.124;2023-02-08T16:35:37;-2.40;99.90
16700;DHT22;8466;52.286;21.124;2023-02-08T16:38:08;-2.50;99.90
16700;DHT22;8466;52.286;21.124;2023-02-08T16:40:44;-2.50;99.90
16700;DHT22;8466;52.286;21.124;2023-02-08T16:43:17;-2.60;99.90
16700;DHT22;8466;52.286;21.124;2023-02-08T16:45:46;-2.70;99.90